Davis Sea — WDC2883 — position and weather

sailwx.info

Track history (hours):
 
Tides and Currents Weather Stations Pressure Air Temp Water Temp Dewpoint Dewpoint Depression Visibility Wind Speed Wind Dir Waves Ship Positions

Davis Sea

More information available from US FCC via Universal Licensing System and Coast Guard Vessel Documentation Center.

Last reported at 2014-Jun-02 17:22 UTC. Time now 2014-Jul-28 14:28 UTC.
Position N 40°38' W 074°10'.
Warning: this ship's position is 55 days out of date.

MMSI: 367129540.

Date/timePositionNaut miles runAvg speedWind from/ knotsBaromVisibWave heightAir tempDewpointWater temp
2014-Jun-02 17:22N 40°38' W 074°10'0 0.0
2014-Jun-02 16:33N 40°38' W 074°10'0 0.0
2014-Jun-02 15:33N 40°38' W 074°10'0 0.0
2014-Jun-02 14:33N 40°38' W 074°10'0 0.0
2014-Jun-02 11:31N 40°38' W 074°10'6 5.7
2014-Jun-02 10:27N 40°33' W 074°14'1 0.7
2014-Jun-02 08:31N 40°32' W 074°15'7 3.8
2014-Jun-02 06:33N 40°39' W 074°10'0 0.0
2014-Jun-02 05:28N 40°39' W 074°10'0 0.0
2014-Jun-02 04:33N 40°39' W 074°10'3 0.5
2014-Jun-01 23:31N 40°37' W 074°12'4 4.4
2014-Jun-01 22:33N 40°39' W 074°07'2 1.9
2014-Jun-01 21:33N 40°38' W 074°10'0 0.0
2014-Jun-01 17:10N 40°38' W 074°10'0 0.0
2014-Jun-01 16:32N 40°38' W 074°10'0 0.0
2014-Jun-01 13:25N 40°38' W 074°10'7 2.3
2014-Jun-01 10:23N 40°33' W 074°15'7 7.9
2014-Jun-01 09:32N 40°39' W 074°11'1 0.4
2014-Jun-01 07:10N 40°38' W 074°10'3 5.4
2014-Jun-01 06:33N 40°39' W 074°06'5 5.1
2014-Jun-01 05:33N 40°42' W 074°00'7 7.0
2014-Jun-01 04:33N 40°48' W 073°55'6 5.9
2014-Jun-01 03:33N 40°49' W 073°47'16 7.3
2014-Jun-01 01:23N 40°58' W 073°30'6 7.6
2014-Jun-01 00:33N 41°01' W 073°23'8 7.6
2014-May-31 23:33N 41°04' W 073°13'15 7.3
2014-May-31 21:33N 41°12' W 072°57'5 0.6
2014-May-31 12:25N 41°17' W 072°55'5 5.8
2014-May-31 11:33N 41°12' W 072°56'6 6.5
2014-May-31 10:33N 41°08' W 073°03'7 6.8
2014-May-31 09:33N 41°05' W 073°11'7 6.9
2014-May-31 08:33N 41°02' W 073°19'7 7.0
2014-May-31 07:33N 40°59' W 073°28'7 6.4
2014-May-31 06:30N 40°56' W 073°36'6 6.0
2014-May-31 05:33N 40°53' W 073°42'7 5.8
2014-May-31 04:27N 40°48' W 073°47'6 6.2
2014-May-31 03:28N 40°47' W 073°55'6 7.0
2014-May-31 02:33N 40°42' W 074°00'4 3.8
2014-May-31 01:33N 40°40' W 074°04'4 4.0
2014-May-31 00:33N 40°39' W 074°09'1 0.1
2014-May-30 20:33N 40°39' W 074°10'0 0.0
2014-May-30 19:33N 40°39' W 074°10'0 0.0
2014-May-30 18:33N 40°39' W 074°10'0 0.0
2014-May-30 17:33N 40°39' W 074°10'2 1.5
2014-May-30 16:14N 40°38' W 074°12'4 5.5
2014-May-30 15:33N 40°39' W 074°07'8 7.6
2014-May-30 14:33N 40°45' W 074°01'12 5.4
2014-May-30 12:17N 40°56' W 073°54'0 0.6
2014-May-30 11:33N 40°56' W 073°55'6 5.2
2014-May-30 10:22N 40°50' W 073°57'6 5.5
2014-May-30 09:20N 40°45' W 074°01'4 5.5
2014-May-30 08:33N 40°41' W 074°02'3 3.0
2014-May-30 07:33N 40°39' W 074°05'6 5.6
2014-May-30 06:32N 40°37' W 074°12'5 4.3
2014-May-30 05:22N 40°33' W 074°15'1 0.6
2014-May-30 04:33N 40°32' W 074°15'0 0.0
2014-May-30 03:28N 40°32' W 074°15'3 2.8
2014-May-30 02:23N 40°35' W 074°13'4 2.0
2014-May-30 00:10N 40°39' W 074°10'3 4.4
2014-May-29 23:33N 40°41' W 074°08'2 1.5
2014-May-29 22:30N 40°42' W 074°07'3 3.7
2014-May-29 21:33N 40°39' W 074°09'1 1.0
2014-May-29 20:33N 40°39' W 074°10'6 2.9
2014-May-29 18:29N 40°33' W 074°14'6 6.8
2014-May-29 17:33N 40°39' W 074°10'4 4.5
2014-May-29 16:33N 40°39' W 074°04'6 6.4
2014-May-29 15:33N 40°38' W 074°12'1 1.1
2014-May-29 14:30N 40°39' W 074°11'1 0.4
2014-May-29 11:33N 40°38' W 074°10'2 2.2
2014-May-29 10:33N 40°40' W 074°08'4 3.7
2014-May-29 09:33N 40°43' W 074°06'1 0.5
2014-May-29 08:33N 40°44' W 074°06'6 5.4
2014-May-29 07:33N 40°39' W 074°09'1 0.9
2014-May-29 06:33N 40°38' W 074°10'0 0.0
2014-May-29 05:33N 40°38' W 074°10'0 0.0
2014-May-29 04:33N 40°38' W 074°10'0 0.0
2014-May-29 03:51N 40°38' W 074°10'0 0.0
2014-May-29 03:33N 40°38' W 074°10'0 0.0
2014-May-29 02:33N 40°38' W 074°10'0 0.0
2014-May-29 01:33N 40°38' W 074°10'2 1.6
2014-May-29 00:33N 40°39' W 074°08'4 4.5
2014-May-28 23:34N 40°41' W 074°03'5 4.8
2014-May-28 22:33N 40°44' W 073°58'1 1.1
2014-May-28 21:27N 40°44' W 073°56'6 6.3
2014-May-28 20:33N 40°40' W 074°02'6 6.2
2014-May-28 19:33N 40°39' W 074°10'0 0.0
2014-May-28 18:33N 40°39' W 074°10'0 0.0
2014-May-28 17:33N 40°39' W 074°10'0 0.0
2014-May-28 16:33N 40°39' W 074°10'0 0.0
2014-May-28 15:33N 40°39' W 074°10'2 1.4
2014-May-28 14:23N 40°38' W 074°12'2 1.9
2014-May-28 13:33N 40°38' W 074°10'0 0.0
2014-May-28 12:33N 40°38' W 074°10'0 0.0
2014-May-28 11:33N 40°38' W 074°10'0 0.0
2014-May-28 10:32N 40°39' W 074°10'0 0.0
2014-May-28 09:29N 40°39' W 074°10'0 0.0
2014-May-28 08:27N 40°39' W 074°10'0 0.0
2014-May-28 07:29N 40°39' W 074°10'0 0.0
2014-May-28 06:33N 40°39' W 074°10'0 0.0
2014-May-28 04:18N 40°39' W 074°10'0 0.0
2014-May-28 03:14N 40°39' W 074°10'12 1.9
2014-May-27 21:05N 40°44' W 073°56'0 0.0
2014-May-27 20:33N 40°44' W 073°56'0 0.0
2014-May-27 19:33N 40°44' W 073°56'0 0.0
2014-May-27 19:04N 40°44' W 073°56'0 0.0
2014-May-27 18:33N 40°44' W 073°56'0 0.0
2014-May-27 18:04N 40°44' W 073°56'0 0.1
2014-May-27 17:21N 40°44' W 073°56'0 0.9
2014-May-27 16:59N 40°44' W 073°57'0 0.0
2014-May-27 16:31N 40°44' W 073°57'1 1.2
2014-May-27 16:04N 40°44' W 073°57'2 3.4
2014-May-27 15:33N 40°43' W 073°58'1 2.9
2014-May-27 15:04N 40°42' W 073°60'3 5.0
2014-May-27 14:33N 40°40' W 074°02'3 6.4
2014-May-27 14:04N 40°39' W 074°06'4 7.2
2014-May-27 13:33N 40°39' W 074°11'3 5.7
2014-May-27 13:03N 40°36' W 074°12'0 0.1
2014-May-27 12:17N 40°36' W 074°12'2 7.6
2014-May-27 12:05N 40°38' W 074°12'2 3.5
2014-May-27 11:33N 40°39' W 074°10'0 0.0
2014-May-27 11:04N 40°39' W 074°10'0 0.0
2014-May-27 10:33N 40°39' W 074°10'0 0.0
2014-May-27 10:04N 40°39' W 074°10'0 0.0
2014-May-27 09:27N 40°39' W 074°10'0 0.0
2014-May-27 09:04N 40°39' W 074°10'0 0.0
2014-May-27 08:33N 40°39' W 074°10'0 0.0
2014-May-27 07:33N 40°39' W 074°10'0 0.0
2014-May-27 07:04N 40°39' W 074°10'0 0.0
2014-May-27 06:33N 40°39' W 074°10'0 0.0
2014-May-27 06:03N 40°39' W 074°10'0 0.0
2014-May-27 05:31N 40°39' W 074°10'4 3.7
2014-May-27 04:26N 40°35' W 074°13'4 9.0
2014-May-27 04:02N 40°39' W 074°11'4 7.5
2014-May-27 03:33N 40°39' W 074°07'3 0.9
2014-May-27 00:31N 40°39' W 074°10'0 0.0
2014-May-26 23:38N 40°39' W 074°10'0 0.0
2014-May-26 23:27N 40°39' W 074°10'0 0.0
2014-May-26 23:04N 40°38' W 074°10'0 0.0
2014-May-26 22:31N 40°38' W 074°10'0 0.0
2014-May-26 22:04N 40°38' W 074°10'0 0.0
2014-May-26 21:32N 40°38' W 074°10'0 0.0
2014-May-26 20:04N 40°38' W 074°10'3 6.3
2014-May-26 19:33N 40°39' W 074°06'2 3.3
2014-May-26 19:04N 40°39' W 074°04'4 7.9
2014-May-26 18:33N 40°42' W 074°00'4 7.9
2014-May-26 18:04N 40°45' W 073°57'4 7.6
2014-May-26 17:33N 40°48' W 073°53'14 6.7
2014-May-26 15:23N 40°56' W 073°37'6 7.7
2014-May-26 14:33N 40°59' W 073°30'4 7.8
2014-May-26 14:04N 41°00' W 073°25'4 7.9
2014-May-26 13:33N 41°02' W 073°20'4 8.0
2014-May-26 13:04N 41°04' W 073°16'4 8.1
2014-May-26 12:33N 41°05' W 073°10'4 8.9
2014-May-26 12:04N 41°07' W 073°05'5 8.8
2014-May-26 11:33N 41°09' W 073°00'4 8.7
2014-May-26 11:04N 41°12' W 072°57'4 7.6
2014-May-26 10:33N 41°16' W 072°55'2 3.9
2014-May-26 10:04N 41°18' W 072°54'0 0.1
2014-May-26 09:33N 41°18' W 072°54'0 0.0
2014-May-26 09:04N 41°18' W 072°54'0 0.0
2014-May-26 08:33N 41°18' W 072°54'0 0.0
2014-May-26 08:04N 41°18' W 072°54'0 0.0
2014-May-26 07:33N 41°18' W 072°54'0 0.0
2014-May-26 07:04N 41°18' W 072°54'0 0.0
2014-May-26 06:33N 41°18' W 072°54'0 0.0
2014-May-26 06:05N 41°18' W 072°54'0 0.0
2014-May-26 05:04N 41°18' W 072°54'0 0.0
2014-May-26 04:33N 41°18' W 072°54'0 0.0
2014-May-26 04:04N 41°18' W 072°54'0 0.0
2014-May-26 03:26N 41°18' W 072°54'0 0.0
2014-May-26 03:04N 41°18' W 072°54'0 0.0
2014-May-26 02:20N 41°18' W 072°54'0 0.0
2014-May-26 02:04N 41°18' W 072°54'0 0.0
2014-May-26 01:28N 41°18' W 072°54'0 0.0
2014-May-26 00:38N 41°18' W 072°54'0 0.1
2014-May-26 00:32N 41°18' W 072°54'2 4.3
2014-May-26 00:04N 41°16' W 072°55'3 6.0
2014-May-25 23:33N 41°13' W 072°56'1 5.6
2014-May-25 23:18N 41°12' W 072°57'4 5.4
2014-May-25 22:33N 41°09' W 073°01'6 5.5
2014-May-25 21:33N 41°06' W 073°07'5 4.6
2014-May-25 20:33N 41°04' W 073°13'9 8.8
2014-May-25 19:33N 41°01' W 073°24'10 9.6
2014-May-25 18:33N 40°57' W 073°35'19 8.1
2014-May-25 16:13N 40°47' W 073°56'4 5.6
2014-May-25 15:33N 40°43' W 073°58'6 6.3
2014-May-25 14:33N 40°39' W 074°04'4 4.3
2014-May-25 13:33N 40°38' W 074°10'0 0.0
2014-May-25 12:33N 40°38' W 074°10'3 0.8
2014-May-25 09:15N 40°37' W 074°12'3 3.9
2014-May-25 08:33N 40°39' W 074°10'0 0.0
2014-May-25 07:33N 40°39' W 074°10'0 0.0
2014-May-25 06:33N 40°39' W 074°10'0 0.0
2014-May-25 05:33N 40°39' W 074°10'0 0.0
2014-May-25 04:33N 40°39' W 074°10'0 0.0
2014-May-25 03:33N 40°39' W 074°10'0 0.0
2014-May-25 02:33N 40°39' W 074°10'0 0.1
2014-May-25 01:29N 40°38' W 074°10'0 0.0
2014-May-25 00:33N 40°38' W 074°10'0 0.0
2014-May-24 23:33N 40°38' W 074°10'0 0.1
2014-May-24 22:30N 40°39' W 074°10'4 4.7
2014-May-24 21:33N 40°39' W 074°04'4 4.4
2014-May-24 20:33N 40°39' W 074°10'0 0.1
2014-May-24 19:03N 40°38' W 074°10'0 0.0
2014-May-24 18:23N 40°38' W 074°10'1 0.4
2014-May-24 16:34N 40°38' W 074°09'2 1.8
2014-May-24 15:32N 40°39' W 074°07'2 1.0
2014-May-24 13:33N 40°39' W 074°04'1 1.1
2014-May-24 12:33N 40°39' W 074°05'3 3.3
2014-May-24 11:32N 40°38' W 074°10'0 0.0
2014-May-24 10:33N 40°38' W 074°10'0 0.0
2014-May-24 09:28N 40°38' W 074°10'0 0.0
2014-May-24 07:14N 40°38' W 074°10'0 0.0
2014-May-24 05:25N 40°38' W 074°10'4 4.8
2014-May-24 04:31N 40°39' W 074°04'7 6.8
2014-May-24 03:32N 40°44' W 073°58'1 1.1
2014-May-24 02:29N 40°44' W 073°57'0 0.0
2014-May-24 01:26N 40°44' W 073°57'0 0.0
2014-May-24 00:29N 40°44' W 073°57'0 0.0
2014-May-23 22:24N 40°44' W 073°57'1 0.8
2014-May-23 21:31N 40°44' W 073°57'6 5.9
2014-May-23 20:33N 40°40' W 074°02'  
Track history (hours):
 
Tides and Currents Weather Stations Pressure Air Temp Water Temp Dewpoint Dewpoint Depression Visibility Wind Speed Wind Dir Waves Ship Positions

Davis Sea

More information available from US FCC via Universal Licensing System and Coast Guard Vessel Documentation Center.

Last reported at 2014-Jun-02 17:22 UTC. Time now 2014-Jul-28 14:28 UTC.
Position N 40°38' W 074°10'.
Warning: this ship's position is 55 days out of date.

MMSI: 367129540.

Date/timePositionNaut miles runAvg speedWind from/ knotsBaromVisibWave heightAir tempDewpointWater temp
2014-Jun-02 17:22N 40°38' W 074°10'0 0.0
2014-Jun-02 16:33N 40°38' W 074°10'0 0.0
2014-Jun-02 15:33N 40°38' W 074°10'0 0.0
2014-Jun-02 14:33N 40°38' W 074°10'0 0.0
2014-Jun-02 11:31N 40°38' W 074°10'6 5.7
2014-Jun-02 10:27N 40°33' W 074°14'1 0.7
2014-Jun-02 08:31N 40°32' W 074°15'7 3.8
2014-Jun-02 06:33N 40°39' W 074°10'0 0.0
2014-Jun-02 05:28N 40°39' W 074°10'0 0.0
2014-Jun-02 04:33N 40°39' W 074°10'3 0.5
2014-Jun-01 23:31N 40°37' W 074°12'4 4.4
2014-Jun-01 22:33N 40°39' W 074°07'2 1.9
2014-Jun-01 21:33N 40°38' W 074°10'0 0.0
2014-Jun-01 17:10N 40°38' W 074°10'0 0.0
2014-Jun-01 16:32N 40°38' W 074°10'0 0.0
2014-Jun-01 13:25N 40°38' W 074°10'7 2.3
2014-Jun-01 10:23N 40°33' W 074°15'7 7.9
2014-Jun-01 09:32N 40°39' W 074°11'1 0.4
2014-Jun-01 07:10N 40°38' W 074°10'3 5.4
2014-Jun-01 06:33N 40°39' W 074°06'5 5.1
2014-Jun-01 05:33N 40°42' W 074°00'7 7.0
2014-Jun-01 04:33N 40°48' W 073°55'6 5.9
2014-Jun-01 03:33N 40°49' W 073°47'16 7.3
2014-Jun-01 01:23N 40°58' W 073°30'6 7.6
2014-Jun-01 00:33N 41°01' W 073°23'8 7.6
2014-May-31 23:33N 41°04' W 073°13'15 7.3
2014-May-31 21:33N 41°12' W 072°57'5 0.6
2014-May-31 12:25N 41°17' W 072°55'5 5.8
2014-May-31 11:33N 41°12' W 072°56'6 6.5
2014-May-31 10:33N 41°08' W 073°03'7 6.8
2014-May-31 09:33N 41°05' W 073°11'7 6.9
2014-May-31 08:33N 41°02' W 073°19'7 7.0
2014-May-31 07:33N 40°59' W 073°28'7 6.4
2014-May-31 06:30N 40°56' W 073°36'6 6.0
2014-May-31 05:33N 40°53' W 073°42'7 5.8
2014-May-31 04:27N 40°48' W 073°47'6 6.2
2014-May-31 03:28N 40°47' W 073°55'6 7.0
2014-May-31 02:33N 40°42' W 074°00'4 3.8
2014-May-31 01:33N 40°40' W 074°04'4 4.0
2014-May-31 00:33N 40°39' W 074°09'1 0.1
2014-May-30 20:33N 40°39' W 074°10'0 0.0
2014-May-30 19:33N 40°39' W 074°10'0 0.0
2014-May-30 18:33N 40°39' W 074°10'0 0.0
2014-May-30 17:33N 40°39' W 074°10'2 1.5
2014-May-30 16:14N 40°38' W 074°12'4 5.5
2014-May-30 15:33N 40°39' W 074°07'8 7.6
2014-May-30 14:33N 40°45' W 074°01'12 5.4
2014-May-30 12:17N 40°56' W 073°54'0 0.6
2014-May-30 11:33N 40°56' W 073°55'6 5.2
2014-May-30 10:22N 40°50' W 073°57'6 5.5
2014-May-30 09:20N 40°45' W 074°01'4 5.5
2014-May-30 08:33N 40°41' W 074°02'3 3.0
2014-May-30 07:33N 40°39' W 074°05'6 5.6
2014-May-30 06:32N 40°37' W 074°12'5 4.3
2014-May-30 05:22N 40°33' W 074°15'1 0.6
2014-May-30 04:33N 40°32' W 074°15'0 0.0
2014-May-30 03:28N 40°32' W 074°15'3 2.8
2014-May-30 02:23N 40°35' W 074°13'4 2.0
2014-May-30 00:10N 40°39' W 074°10'3 4.4
2014-May-29 23:33N 40°41' W 074°08'2 1.5
2014-May-29 22:30N 40°42' W 074°07'3 3.7
2014-May-29 21:33N 40°39' W 074°09'1 1.0
2014-May-29 20:33N 40°39' W 074°10'6 2.9
2014-May-29 18:29N 40°33' W 074°14'6 6.8
2014-May-29 17:33N 40°39' W 074°10'4 4.5
2014-May-29 16:33N 40°39' W 074°04'6 6.4
2014-May-29 15:33N 40°38' W 074°12'1 1.1
2014-May-29 14:30N 40°39' W 074°11'1 0.4
2014-May-29 11:33N 40°38' W 074°10'2 2.2
2014-May-29 10:33N 40°40' W 074°08'4 3.7
2014-May-29 09:33N 40°43' W 074°06'1 0.5
2014-May-29 08:33N 40°44' W 074°06'6 5.4
2014-May-29 07:33N 40°39' W 074°09'1 0.9
2014-May-29 06:33N 40°38' W 074°10'0 0.0
2014-May-29 05:33N 40°38' W 074°10'0 0.0
2014-May-29 04:33N 40°38' W 074°10'0 0.0
2014-May-29 03:51N 40°38' W 074°10'0 0.0
2014-May-29 03:33N 40°38' W 074°10'0 0.0
2014-May-29 02:33N 40°38' W 074°10'0 0.0
2014-May-29 01:33N 40°38' W 074°10'2 1.6
2014-May-29 00:33N 40°39' W 074°08'4 4.5
2014-May-28 23:34N 40°41' W 074°03'5 4.8
2014-May-28 22:33N 40°44' W 073°58'1 1.1
2014-May-28 21:27N 40°44' W 073°56'6 6.3
2014-May-28 20:33N 40°40' W 074°02'6 6.2
2014-May-28 19:33N 40°39' W 074°10'0 0.0
2014-May-28 18:33N 40°39' W 074°10'0 0.0
2014-May-28 17:33N 40°39' W 074°10'0 0.0
2014-May-28 16:33N 40°39' W 074°10'0 0.0
2014-May-28 15:33N 40°39' W 074°10'2 1.4
2014-May-28 14:23N 40°38' W 074°12'2 1.9
2014-May-28 13:33N 40°38' W 074°10'0 0.0
2014-May-28 12:33N 40°38' W 074°10'0 0.0
2014-May-28 11:33N 40°38' W 074°10'0 0.0
2014-May-28 10:32N 40°39' W 074°10'0 0.0
2014-May-28 09:29N 40°39' W 074°10'0 0.0
2014-May-28 08:27N 40°39' W 074°10'0 0.0
2014-May-28 07:29N 40°39' W 074°10'0 0.0
2014-May-28 06:33N 40°39' W 074°10'0 0.0
2014-May-28 04:18N 40°39' W 074°10'0 0.0
2014-May-28 03:14N 40°39' W 074°10'12 1.9
2014-May-27 21:05N 40°44' W 073°56'0 0.0
2014-May-27 20:33N 40°44' W 073°56'0 0.0
2014-May-27 19:33N 40°44' W 073°56'0 0.0
2014-May-27 19:04N 40°44' W 073°56'0 0.0
2014-May-27 18:33N 40°44' W 073°56'0 0.0
2014-May-27 18:04N 40°44' W 073°56'0 0.1
2014-May-27 17:21N 40°44' W 073°56'0 0.9
2014-May-27 16:59N 40°44' W 073°57'0 0.0
2014-May-27 16:31N 40°44' W 073°57'1 1.2
2014-May-27 16:04N 40°44' W 073°57'2 3.4
2014-May-27 15:33N 40°43' W 073°58'1 2.9
2014-May-27 15:04N 40°42' W 073°60'3 5.0
2014-May-27 14:33N 40°40' W 074°02'3 6.4
2014-May-27 14:04N 40°39' W 074°06'4 7.2
2014-May-27 13:33N 40°39' W 074°11'3 5.7
2014-May-27 13:03N 40°36' W 074°12'0 0.1
2014-May-27 12:17N 40°36' W 074°12'2 7.6
2014-May-27 12:05N 40°38' W 074°12'2 3.5
2014-May-27 11:33N 40°39' W 074°10'0 0.0
2014-May-27 11:04N 40°39' W 074°10'0 0.0
2014-May-27 10:33N 40°39' W 074°10'0 0.0
2014-May-27 10:04N 40°39' W 074°10'0 0.0
2014-May-27 09:27N 40°39' W 074°10'0 0.0
2014-May-27 09:04N 40°39' W 074°10'0 0.0
2014-May-27 08:33N 40°39' W 074°10'0 0.0
2014-May-27 07:33N 40°39' W 074°10'0 0.0
2014-May-27 07:04N 40°39' W 074°10'0 0.0
2014-May-27 06:33N 40°39' W 074°10'0 0.0
2014-May-27 06:03N 40°39' W 074°10'0 0.0
2014-May-27 05:31N 40°39' W 074°10'4 3.7
2014-May-27 04:26N 40°35' W 074°13'4 9.0
2014-May-27 04:02N 40°39' W 074°11'4 7.5
2014-May-27 03:33N 40°39' W 074°07'3 0.9
2014-May-27 00:31N 40°39' W 074°10'0 0.0
2014-May-26 23:38N 40°39' W 074°10'0 0.0
2014-May-26 23:27N 40°39' W 074°10'0 0.0
2014-May-26 23:04N 40°38' W 074°10'0 0.0
2014-May-26 22:31N 40°38' W 074°10'0 0.0
2014-May-26 22:04N 40°38' W 074°10'0 0.0
2014-May-26 21:32N 40°38' W 074°10'0 0.0
2014-May-26 20:04N 40°38' W 074°10'3 6.3
2014-May-26 19:33N 40°39' W 074°06'2 3.3
2014-May-26 19:04N 40°39' W 074°04'4 7.9
2014-May-26 18:33N 40°42' W 074°00'4 7.9
2014-May-26 18:04N 40°45' W 073°57'4 7.6
2014-May-26 17:33N 40°48' W 073°53'14 6.7
2014-May-26 15:23N 40°56' W 073°37'6 7.7
2014-May-26 14:33N 40°59' W 073°30'4 7.8
2014-May-26 14:04N 41°00' W 073°25'4 7.9
2014-May-26 13:33N 41°02' W 073°20'4 8.0
2014-May-26 13:04N 41°04' W 073°16'4 8.1
2014-May-26 12:33N 41°05' W 073°10'4 8.9
2014-May-26 12:04N 41°07' W 073°05'5 8.8
2014-May-26 11:33N 41°09' W 073°00'4 8.7
2014-May-26 11:04N 41°12' W 072°57'4 7.6
2014-May-26 10:33N 41°16' W 072°55'2 3.9
2014-May-26 10:04N 41°18' W 072°54'0 0.1
2014-May-26 09:33N 41°18' W 072°54'0 0.0
2014-May-26 09:04N 41°18' W 072°54'0 0.0
2014-May-26 08:33N 41°18' W 072°54'0 0.0
2014-May-26 08:04N 41°18' W 072°54'0 0.0
2014-May-26 07:33N 41°18' W 072°54'0 0.0
2014-May-26 07:04N 41°18' W 072°54'0 0.0
2014-May-26 06:33N 41°18' W 072°54'0 0.0
2014-May-26 06:05N 41°18' W 072°54'0 0.0
2014-May-26 05:04N 41°18' W 072°54'0 0.0
2014-May-26 04:33N 41°18' W 072°54'0 0.0
2014-May-26 04:04N 41°18' W 072°54'0 0.0
2014-May-26 03:26N 41°18' W 072°54'0 0.0
2014-May-26 03:04N 41°18' W 072°54'0 0.0
2014-May-26 02:20N 41°18' W 072°54'0 0.0
2014-May-26 02:04N 41°18' W 072°54'0 0.0
2014-May-26 01:28N 41°18' W 072°54'0 0.0
2014-May-26 00:38N 41°18' W 072°54'0 0.1
2014-May-26 00:32N 41°18' W 072°54'2 4.3
2014-May-26 00:04N 41°16' W 072°55'3 6.0
2014-May-25 23:33N 41°13' W 072°56'1 5.6
2014-May-25 23:18N 41°12' W 072°57'4 5.4
2014-May-25 22:33N 41°09' W 073°01'6 5.5
2014-May-25 21:33N 41°06' W 073°07'5 4.6
2014-May-25 20:33N 41°04' W 073°13'9 8.8
2014-May-25 19:33N 41°01' W 073°24'10 9.6
2014-May-25 18:33N 40°57' W 073°35'19 8.1
2014-May-25 16:13N 40°47' W 073°56'4 5.6
2014-May-25 15:33N 40°43' W 073°58'6 6.3
2014-May-25 14:33N 40°39' W 074°04'4 4.3
2014-May-25 13:33N 40°38' W 074°10'0 0.0
2014-May-25 12:33N 40°38' W 074°10'3 0.8
2014-May-25 09:15N 40°37' W 074°12'3 3.9
2014-May-25 08:33N 40°39' W 074°10'0 0.0
2014-May-25 07:33N 40°39' W 074°10'0 0.0
2014-May-25 06:33N 40°39' W 074°10'0 0.0
2014-May-25 05:33N 40°39' W 074°10'0 0.0
2014-May-25 04:33N 40°39' W 074°10'0 0.0
2014-May-25 03:33N 40°39' W 074°10'0 0.0
2014-May-25 02:33N 40°39' W 074°10'0 0.1
2014-May-25 01:29N 40°38' W 074°10'0 0.0
2014-May-25 00:33N 40°38' W 074°10'0 0.0
2014-May-24 23:33N 40°38' W 074°10'0 0.1
2014-May-24 22:30N 40°39' W 074°10'4 4.7
2014-May-24 21:33N 40°39' W 074°04'4 4.4
2014-May-24 20:33N 40°39' W 074°10'0 0.1
2014-May-24 19:03N 40°38' W 074°10'0 0.0
2014-May-24 18:23N 40°38' W 074°10'1 0.4
2014-May-24 16:34N 40°38' W 074°09'2 1.8
2014-May-24 15:32N 40°39' W 074°07'2 1.0
2014-May-24 13:33N 40°39' W 074°04'1 1.1
2014-May-24 12:33N 40°39' W 074°05'3 3.3
2014-May-24 11:32N 40°38' W 074°10'0 0.0
2014-May-24 10:33N 40°38' W 074°10'0 0.0
2014-May-24 09:28N 40°38' W 074°10'0 0.0
2014-May-24 07:14N 40°38' W 074°10'0 0.0
2014-May-24 05:25N 40°38' W 074°10'4 4.8
2014-May-24 04:31N 40°39' W 074°04'7 6.8
2014-May-24 03:32N 40°44' W 073°58'1 1.1
2014-May-24 02:29N 40°44' W 073°57'0 0.0
2014-May-24 01:26N 40°44' W 073°57'0 0.0
2014-May-24 00:29N 40°44' W 073°57'0 0.0
2014-May-23 22:24N 40°44' W 073°57'1 0.8
2014-May-23 21:31N 40°44' W 073°57'6 5.9
2014-May-23 20:33N 40°40' W 074°02'  

Dump ship's entire track history